North Wichita, Kansas
Current Conditions -  °F | °C
As of 8:54 AM on Friday 28 Nov 2014 (Local Time) from KAAO Reporting Station
Clear Clear  
Wind Chill: 36°   Ceiling: Unl
Heat Index: 43°   Visibility: 10mi
Dew Point: 29°   Wind: 13mph
Humidity: 58%   Direction: 200°SSW
Pressure: 29.99"   Gusts: NA
Location:  37.7735°N, 97.3663°W
Report Text: KAAO 281454Z AUTO 20011KT 10SM CLR 06/M02 A2999 RMK AO2 SLP165 T00611017 55004
Loading
Personal Weather Stations






























Interactive Weather Map New forecast layout! Learn more

10-Day Weather Forecast

Advertisements
Track Severe Weather on mobile